Time;durP1;ratioP1;P1;durP2;ratioP2;P2;SDS_P1;SDS_P2;PMS_P1;PMS_P2;Temp;Humidity;BMP_temperature;BMP_pressure;BME280_temperature;BME280_humidity;BME280_pressure;Samples;Min_cycle;Max_cycle;Signal;HPM_P1;HPM_P2
2023/08/17 00:00:25;;;;;;;14.57;9.00;;;21.20;84.70;;;;;;5017290;28;20203;-79
2023/08/17 00:02:51;;;;;;;12.20;8.67;;;21.10;85.00;;;;;;5010243;28;20506;-80
2023/08/17 00:05:16;;;;;;;15.53;9.57;;;21.10;85.00;;;;;;5013017;28;20181;-79
2023/08/17 00:07:42;;;;;;;10.87;7.80;;;21.10;85.30;;;;;;5003532;28;20189;-81
2023/08/17 00:10:08;;;;;;;12.97;9.13;;;21.10;85.50;;;;;;5015154;28;20214;-79
2023/08/17 00:12:33;;;;;;;12.27;8.50;;;21.10;85.60;;;;;;5022961;28;20683;-86
2023/08/17 00:14:59;;;;;;;17.50;9.70;;;21.10;85.50;;;;;;5020204;28;20429;-79
2023/08/17 00:17:24;;;;;;;19.83;10.70;;;21.10;85.60;;;;;;5015102;28;20246;-79
2023/08/17 00:19:50;;;;;;;16.27;10.13;;;21.00;85.90;;;;;;5015556;28;20287;-81
2023/08/17 00:22:16;;;;;;;17.93;9.90;;;21.00;86.20;;;;;;5011357;28;20209;-79
2023/08/17 00:24:44;;;;;;;12.07;9.03;;;21.10;86.30;;;;;;5012567;28;20438;-81
2023/08/17 00:27:10;;;;;;;13.20;9.30;;;21.20;86.20;;;;;;5022093;28;20186;-80
2023/08/17 00:29:35;;;;;;;13.93;9.23;;;21.20;86.00;;;;;;5025215;28;20422;-79
2023/08/17 00:32:02;;;;;;;14.00;8.80;;;21.20;85.90;;;;;;5007118;28;20727;-82
2023/08/17 00:34:27;;;;;;;9.60;7.03;;;21.20;85.70;;;;;;5020182;28;20297;-80
2023/08/17 00:36:53;;;;;;;14.30;8.37;;;21.20;85.20;;;;;;5014820;28;21174;-80
2023/08/17 00:39:19;;;;;;;11.23;8.50;;;21.10;84.40;;;;;;5021629;28;20222;-84
2023/08/17 00:41:45;;;;;;;12.67;7.93;;;21.00;84.90;;;;;;5013945;28;20214;-81
2023/08/17 00:44:11;;;;;;;15.40;8.67;;;20.80;85.50;;;;;;5023681;28;20964;-79
2023/08/17 00:46:37;;;;;;;16.27;9.43;;;20.80;85.90;;;;;;5020759;28;20938;-80
2023/08/17 00:49:03;;;;;;;19.93;9.30;;;20.80;86.20;;;;;;5027376;28;20617;-82
2023/08/17 00:51:29;;;;;;;13.30;8.63;;;20.80;86.50;;;;;;5012594;28;20998;-81
2023/08/17 00:53:58;;;;;;;13.90;9.20;;;20.90;86.60;;;;;;5024502;28;20183;-79
2023/08/17 00:56:24;;;;;;;14.47;8.97;;;20.90;86.30;;;;;;5014623;28;20219;-78
2023/08/17 00:58:50;;;;;;;14.93;8.80;;;20.90;86.20;;;;;;5031862;28;20445;-81
2023/08/17 01:01:17;;;;;;;13.83;9.17;;;20.90;86.20;;;;;;5013713;28;20515;-79
2023/08/17 01:03:43;;;;;;;13.30;9.40;;;21.00;86.30;;;;;;5029357;28;20420;-79
2023/08/17 01:06:09;;;;;;;17.87;11.33;;;21.00;86.50;;;;;;5016508;28;20511;-79
2023/08/17 01:08:39;;;;;;;12.10;9.13;;;21.00;86.50;;;;;;5025795;28;20255;-78
2023/08/17 01:11:08;;;;;;;13.50;9.83;;;21.00;86.50;;;;;;5015280;28;20461;-78
2023/08/17 01:13:55;;;;;;;12.30;8.60;;;21.10;86.60;;;;;;5024732;28;20448;-77
2023/08/17 01:16:35;;;;;;;14.43;9.03;;;21.20;86.50;;;;;;5020482;28;20942;-77
2023/08/17 01:19:01;;;;;;;14.50;9.00;;;21.20;86.50;;;;;;5018319;28;20418;-78
2023/08/17 01:21:35;;;;;;;14.80;9.07;;;21.30;86.30;;;;;;5012905;28;20524;-77
2023/08/17 01:24:03;;;;;;;14.50;8.90;;;21.30;86.00;;;;;;5013494;28;20477;-77
2023/08/17 01:26:29;;;;;;;17.83;9.20;;;21.30;85.90;;;;;;5028676;28;20425;-79
2023/08/17 01:28:55;;;;;;;14.03;9.03;;;21.40;85.50;;;;;;5031751;28;20420;-79
2023/08/17 01:31:50;;;;;;;11.90;8.03;;;21.40;85.20;;;;;;5023385;28;20206;-79
2023/08/17 01:34:20;;;;;;;11.17;7.47;;;21.40;84.30;;;;;;5019995;28;20810;-80
2023/08/17 01:36:53;;;;;;;13.77;8.10;;;21.40;84.00;;;;;;5029225;28;20463;-80
2023/08/17 01:39:23;;;;;;;12.73;8.60;;;21.30;84.10;;;;;;5024179;28;20553;-86
2023/08/17 01:41:51;;;;;;;12.90;8.93;;;21.30;84.30;;;;;;5015808;28;20482;-78
2023/08/17 01:44:16;;;;;;;13.43;8.33;;;21.10;84.70;;;;;;5019060;28;20842;-80
2023/08/17 01:46:42;;;;;;;13.83;8.53;;;21.10;85.20;;;;;;5017201;28;20543;-81
2023/08/17 01:49:08;;;;;;;11.90;7.87;;;21.20;84.90;;;;;;5016096;28;20249;-82
2023/08/17 01:51:33;;;;;;;16.53;8.57;;;21.30;84.60;;;;;;5014626;28;20595;-81
2023/08/17 01:53:59;;;;;;;17.40;8.77;;;21.30;84.10;;;;;;5024790;28;20278;-79
2023/08/17 01:56:24;;;;;;;17.20;9.47;;;21.20;84.00;;;;;;5025882;28;20207;-80
2023/08/17 01:58:50;;;;;;;12.80;8.30;;;21.00;84.40;;;;;;5019874;28;20190;-78
2023/08/17 02:01:15;;;;;;;14.13;8.57;;;20.90;85.30;;;;;;5011542;28;20204;-78
2023/08/17 02:03:41;;;;;;;12.53;8.20;;;20.80;85.60;;;;;;5020166;28;20659;-78
2023/08/17 02:06:07;;;;;;;13.70;8.30;;;20.80;85.90;;;;;;5013045;28;20205;-78
2023/08/17 02:08:34;;;;;;;15.07;9.50;;;20.80;85.90;;;;;;5019048;28;20222;-78
2023/08/17 02:11:00;;;;;;;14.90;9.10;;;20.80;86.00;;;;;;5022284;28;20222;-78
2023/08/17 02:13:27;;;;;;;14.67;9.07;;;20.80;86.20;;;;;;5021192;28;20422;-78
2023/08/17 02:15:53;;;;;;;13.90;9.20;;;20.80;86.00;;;;;;5026287;28;20183;-80
2023/08/17 02:18:18;;;;;;;13.57;8.60;;;20.80;86.30;;;;;;5028716;28;20468;-81
2023/08/17 02:20:44;;;;;;;12.10;7.93;;;20.70;86.30;;;;;;5012878;28;20713;-81
2023/08/17 02:23:09;;;;;;;14.17;8.93;;;20.70;86.30;;;;;;5018366;28;20195;-79
2023/08/17 02:25:40;;;;;;;13.20;8.13;;;20.70;86.50;;;;;;5016152;28;20198;-79
2023/08/17 02:28:06;;;;;;;14.13;8.60;;;20.70;86.80;;;;;;5027565;28;20262;-79
2023/08/17 02:30:32;;;;;;;9.83;7.70;;;20.70;86.80;;;;;;5014138;28;21095;-78
2023/08/17 02:32:58;;;;;;;16.00;8.27;;;20.70;86.90;;;;;;5016551;28;20424;-77
2023/08/17 02:35:23;;;;;;;28.00;10.70;;;20.80;86.90;;;;;;5016593;28;20184;-79
2023/08/17 02:37:49;;;;;;;14.90;9.87;;;20.80;86.50;;;;;;5023365;28;20268;-79
2023/08/17 02:40:15;;;;;;;17.63;9.50;;;20.80;86.60;;;;;;5024350;28;20264;-81
2023/08/17 02:42:40;;;;;;;15.60;8.87;;;20.80;86.80;;;;;;5035073;28;20189;-80
2023/08/17 02:45:07;;;;;;;18.07;10.90;;;20.90;86.80;;;;;;5019331;28;20189;-79
2023/08/17 02:47:32;;;;;;;19.07;10.03;;;20.90;86.30;;;;;;5013657;28;20576;-83
2023/08/17 02:49:58;;;;;;;17.63;9.77;;;20.90;86.30;;;;;;5011287;28;20412;-80
2023/08/17 02:52:24;;;;;;;16.97;10.43;;;20.90;86.60;;;;;;5015347;28;20845;-79
2023/08/17 02:54:49;;;;;;;15.70;10.20;;;20.90;86.80;;;;;;5012113;28;20187;-82
2023/08/17 02:57:15;;;;;;;17.03;9.80;;;20.90;86.80;;;;;;5025633;28;20203;-80
2023/08/17 02:59:40;;;;;;;14.50;9.60;;;21.00;86.20;;;;;;5023187;28;20277;-81
2023/08/17 03:02:06;;;;;;;16.60;9.87;;;20.90;85.90;;;;;;5013824;28;20211;-80
2023/08/17 03:04:32;;;;;;;16.60;11.00;;;21.00;86.20;;;;;;5022027;28;20227;-86
2023/08/17 03:06:58;;;;;;;18.00;9.43;;;21.00;85.60;;;;;;5024590;28;20197;-80
2023/08/17 03:09:23;;;;;;;17.70;10.80;;;20.90;85.90;;;;;;5024616;28;20457;-82
2023/08/17 03:11:49;;;;;;;16.57;9.47;;;20.90;86.20;;;;;;5013428;28;20211;-81
2023/08/17 03:14:14;;;;;;;19.33;11.97;;;20.90;86.20;;;;;;5021469;28;20189;-82
2023/08/17 03:16:40;;;;;;;19.13;11.67;;;20.90;86.50;;;;;;5023190;28;20265;-79
2023/08/17 03:19:07;;;;;;;21.07;11.80;;;20.90;86.60;;;;;;5018076;28;20280;-79
2023/08/17 03:21:33;;;;;;;23.07;12.37;;;20.90;86.80;;;;;;5022469;28;20220;-76
2023/08/17 03:23:59;;;;;;;21.70;13.30;;;20.90;86.60;;;;;;5009842;28;20430;-75
2023/08/17 03:26:25;;;;;;;22.10;13.40;;;20.90;86.50;;;;;;5014780;28;20414;-76
2023/08/17 03:28:50;;;;;;;20.33;13.00;;;20.90;86.50;;;;;;5020201;28;20978;-81
2023/08/17 03:31:16;;;;;;;25.07;13.37;;;20.90;86.50;;;;;;5013387;28;20202;-78
2023/08/17 03:33:41;;;;;;;25.07;14.80;;;21.00;86.50;;;;;;5013968;28;20797;-78
2023/08/17 03:36:07;;;;;;;24.43;13.17;;;21.00;86.20;;;;;;5014940;28;20302;-79
2023/08/17 03:38:32;;;;;;;22.63;12.93;;;21.00;86.20;;;;;;5022945;28;20241;-78
2023/08/17 03:40:58;;;;;;;21.33;13.60;;;21.00;86.00;;;;;;5020366;28;20214;-78
2023/08/17 03:43:25;;;;;;;22.77;13.60;;;21.10;86.20;;;;;;5017247;28;20189;-78
2023/08/17 03:45:50;;;;;;;22.07;13.57;;;21.10;86.00;;;;;;5024328;28;20183;-79
2023/08/17 03:48:16;;;;;;;23.60;13.10;;;21.10;85.90;;;;;;5022795;28;20442;-79
2023/08/17 03:50:42;;;;;;;20.43;12.40;;;21.10;85.70;;;;;;5013387;28;20260;-81
2023/08/17 03:53:07;;;;;;;25.03;13.70;;;21.10;85.00;;;;;;5023342;28;20309;-81
2023/08/17 03:55:33;;;;;;;25.13;11.87;;;21.10;84.70;;;;;;5019022;28;20187;-81
2023/08/17 03:57:58;;;;;;;19.83;13.10;;;21.10;84.70;;;;;;5027798;28;20216;-81
2023/08/17 04:00:24;;;;;;;23.27;12.80;;;21.10;84.90;;;;;;5018138;28;20204;-81
2023/08/17 04:02:49;;;;;;;18.33;11.67;;;21.10;85.20;;;;;;5017684;28;20200;-81
2023/08/17 04:05:15;;;;;;;19.70;10.77;;;21.20;85.50;;;;;;5021793;28;20190;-79
2023/08/17 04:07:41;;;;;;;28.80;15.40;;;21.20;85.20;;;;;;5014164;28;20187;-80
2023/08/17 04:10:07;;;;;;;25.20;14.50;;;21.20;85.00;;;;;;5027195;28;20227;-79
2023/08/17 04:12:32;;;;;;;26.47;15.37;;;21.30;84.70;;;;;;5022351;28;20191;-79
2023/08/17 04:14:58;;;;;;;25.33;14.20;;;21.40;84.00;;;;;;5034572;28;20427;-79
2023/08/17 04:17:24;;;;;;;22.80;13.20;;;21.30;83.80;;;;;;5032592;28;20212;-79
2023/08/17 04:19:50;;;;;;;25.83;14.40;;;21.30;83.70;;;;;;5024027;28;20504;-80
2023/08/17 04:22:16;;;;;;;25.47;14.20;;;21.30;83.60;;;;;;5016985;28;20434;-79
2023/08/17 04:24:41;;;;;;;23.30;14.10;;;21.30;83.70;;;;;;5027839;28;20187;-80
2023/08/17 04:27:07;;;;;;;24.70;14.40;;;21.30;84.00;;;;;;5031279;28;20220;-81
2023/08/17 04:29:33;;;;;;;26.57;14.77;;;21.20;84.10;;;;;;5023793;28;20179;-77
2023/08/17 04:31:59;;;;;;;27.17;15.37;;;21.20;84.30;;;;;;5014784;28;20442;-79
2023/08/17 04:34:24;;;;;;;29.50;15.90;;;21.20;84.10;;;;;;5022477;28;20213;-79
2023/08/17 04:36:50;;;;;;;31.57;16.77;;;21.10;84.10;;;;;;5026762;28;20222;-85
2023/08/17 04:39:16;;;;;;;30.20;15.30;;;21.10;84.40;;;;;;5021623;28;20452;-84
2023/08/17 04:41:41;;;;;;;27.90;14.80;;;20.90;85.00;;;;;;5020508;28;20222;-84
2023/08/17 04:44:07;;;;;;;31.00;18.03;;;20.90;85.50;;;;;;5027474;28;20217;-84
2023/08/17 04:46:33;;;;;;;30.27;17.30;;;20.90;85.60;;;;;;5044140;28;20229;-86
2023/08/17 04:48:59;;;;;;;30.90;16.07;;;21.00;85.60;;;;;;5026036;28;20225;-86
2023/08/17 04:51:25;;;;;;;29.60;17.00;;;21.00;85.70;;;;;;5024485;28;20236;-86
2023/08/17 04:53:50;;;;;;;30.60;16.77;;;21.00;85.90;;;;;;5020873;28;20198;-86
2023/08/17 04:56:16;;;;;;;25.07;15.20;;;21.10;85.50;;;;;;5019536;28;20465;-86
2023/08/17 04:58:43;;;;;;;27.40;16.40;;;21.10;84.90;;;;;;5026345;28;20183;-86
2023/08/17 05:01:10;;;;;;;24.83;15.40;;;21.10;84.60;;;;;;5037224;28;20682;-86
2023/08/17 05:03:35;;;;;;;29.03;15.63;;;21.00;84.90;;;;;;5038398;28;20418;-86
2023/08/17 05:06:01;;;;;;;26.97;15.53;;;20.90;85.20;;;;;;5033192;28;20406;-87
2023/08/17 05:08:27;;;;;;;27.10;15.67;;;20.90;85.60;;;;;;5028301;28;20217;-86
2023/08/17 05:10:52;;;;;;;29.80;16.77;;;20.90;85.60;;;;;;5020356;28;20218;-86
2023/08/17 05:13:18;;;;;;;29.63;15.37;;;20.90;85.50;;;;;;5019605;28;20245;-86
2023/08/17 05:15:44;;;;;;;30.20;16.47;;;20.90;85.70;;;;;;5033438;28;20287;-84
2023/08/17 05:18:10;;;;;;;28.37;14.30;;;21.10;85.90;;;;;;5027995;28;20237;-85
2023/08/17 05:20:37;;;;;;;28.80;14.30;;;21.10;85.70;;;;;;5018487;28;20476;-85
2023/08/17 05:23:04;;;;;;;27.33;14.73;;;21.20;85.30;;;;;;5031446;28;20446;-86
2023/08/17 05:25:29;;;;;;;26.73;16.40;;;21.30;84.30;;;;;;5034186;28;20419;-85
2023/08/17 05:27:56;;;;;;;29.37;15.53;;;21.30;84.10;;;;;;5033850;28;20522;-87
2023/08/17 05:30:21;;;;;;;31.43;16.77;;;21.30;84.10;;;;;;5038585;28;20233;-85
2023/08/17 05:32:48;;;;;;;28.93;16.37;;;21.30;83.80;;;;;;5034559;28;20430;-82
2023/08/17 05:35:14;;;;;;;29.00;16.47;;;21.20;84.10;;;;;;5037188;28;20446;-82
2023/08/17 05:37:39;;;;;;;29.60;17.40;;;21.20;84.30;;;;;;5037677;28;20220;-82
2023/08/17 05:40:05;;;;;;;41.50;17.27;;;21.20;84.40;;;;;;5024312;28;20203;-82
2023/08/17 05:42:31;;;;;;;26.27;15.77;;;21.30;84.70;;;;;;5025036;28;20200;-82
2023/08/17 05:44:57;;;;;;;24.50;14.30;;;21.30;84.70;;;;;;5042787;28;20439;-82
2023/08/17 05:47:22;;;;;;;33.20;16.10;;;21.40;84.70;;;;;;5034511;28;20192;-82
2023/08/17 05:49:48;;;;;;;24.70;14.90;;;21.50;83.70;;;;;;5022592;28;20219;-83
2023/08/17 05:52:13;;;;;;;28.93;16.80;;;21.60;83.60;;;;;;5015680;28;20208;-83
2023/08/17 05:54:39;;;;;;;29.03;16.00;;;21.60;83.30;;;;;;5028935;28;20185;-83
2023/08/17 05:57:05;;;;;;;28.07;15.70;;;21.60;83.60;;;;;;5031035;28;20219;-82
2023/08/17 05:59:30;;;;;;;30.10;13.70;;;21.70;83.00;;;;;;5029052;28;20199;-83
2023/08/17 06:01:56;;;;;;;26.53;15.63;;;21.70;83.10;;;;;;5013447;28;20691;-81
2023/08/17 06:04:22;;;;;;;29.77;15.97;;;21.80;83.00;;;;;;5017549;28;20986;-82
2023/08/17 06:06:47;;;;;;;26.67;15.80;;;21.80;82.80;;;;;;5019588;28;20188;-83
2023/08/17 06:09:14;;;;;;;28.13;16.13;;;21.80;82.80;;;;;;5030561;28;20196;-80
2023/08/17 06:11:40;;;;;;;27.10;15.70;;;21.90;82.40;;;;;;5026364;28;20203;-83
2023/08/17 06:14:06;;;;;;;22.87;14.23;;;21.90;81.50;;;;;;5027174;28;20415;-83
2023/08/17 06:16:32;;;;;;;30.17;15.53;;;21.90;81.80;;;;;;5017956;28;20223;-83
2023/08/17 06:18:58;;;;;;;34.23;14.93;;;22.00;82.20;;;;;;5014941;28;20433;-80
2023/08/17 06:21:23;;;;;;;24.80;14.10;;;22.10;81.50;;;;;;5013507;28;20564;-80
2023/08/17 06:23:49;;;;;;;28.03;14.53;;;22.10;81.40;;;;;;5020477;28;20860;-79
2023/08/17 06:26:15;;;;;;;24.53;13.50;;;22.20;81.70;;;;;;5029138;28;20659;-80
2023/08/17 06:28:40;;;;;;;21.80;13.83;;;22.30;81.40;;;;;;5020229;28;20304;-81
2023/08/17 06:31:06;;;;;;;27.20;14.70;;;22.40;81.10;;;;;;5013924;28;20260;-80
2023/08/17 06:33:32;;;;;;;24.37;14.03;;;22.50;80.80;;;;;;5028025;28;20189;-79
2023/08/17 06:35:58;;;;;;;18.70;12.50;;;22.50;80.20;;;;;;5021439;28;20435;-80
2023/08/17 06:38:23;;;;;;;25.57;15.50;;;22.50;80.20;;;;;;5021101;28;20185;-80
2023/08/17 06:40:49;;;;;;;27.07;16.33;;;22.60;80.20;;;;;;5019674;28;20261;-79
2023/08/17 06:43:14;;;;;;;24.73;14.53;;;22.60;79.90;;;;;;5021425;28;20206;-79
2023/08/17 06:45:40;;;;;;;23.50;14.07;;;22.80;79.20;;;;;;5021494;28;20662;-80
2023/08/17 06:48:06;;;;;;;21.03;13.50;;;22.80;78.60;;;;;;5026240;28;20262;-79
2023/08/17 06:50:31;;;;;;;21.67;12.77;;;22.80;78.10;;;;;;5018933;28;20201;-79
2023/08/17 06:52:57;;;;;;;24.87;14.60;;;22.80;78.60;;;;;;5017703;28;20185;-81
2023/08/17 06:55:23;;;;;;;30.23;15.10;;;22.80;78.60;;;;;;5021593;28;20188;-80
2023/08/17 06:57:51;;;;;;;26.83;15.10;;;22.80;78.40;;;;;;5027614;28;20709;-80
2023/08/17 07:00:20;;;;;;;26.63;13.77;;;22.90;78.40;;;;;;5032557;28;20216;-77
2023/08/17 07:02:48;;;;;;;25.80;15.30;;;22.90;78.40;;;;;;5026531;28;20952;-80
2023/08/17 07:05:15;;;;;;;22.20;13.63;;;22.80;77.80;;;;;;5043489;28;20781;-77
2023/08/17 07:07:42;;;;;;;22.33;12.40;;;22.80;78.60;;;;;;5024487;28;20443;-80
2023/08/17 07:10:08;;;;;;;20.40;13.33;;;23.00;77.60;;;;;;5028961;28;20617;-79
2023/08/17 07:12:34;;;;;;;25.73;13.30;;;23.10;77.10;;;;;;5018307;28;20431;-79
2023/08/17 07:15:00;;;;;;;23.53;13.90;;;23.20;76.80;;;;;;5031618;28;20493;-79
2023/08/17 07:17:25;;;;;;;23.83;12.70;;;23.10;77.00;;;;;;5018830;28;20483;-79
2023/08/17 07:19:51;;;;;;;24.33;13.77;;;23.10;77.00;;;;;;5021734;28;20278;-78
2023/08/17 07:22:16;;;;;;;22.90;13.40;;;23.10;77.00;;;;;;5022795;28;20193;-79
2023/08/17 07:24:42;;;;;;;23.57;12.83;;;22.90;77.40;;;;;;5025846;28;20201;-79
2023/08/17 07:27:08;;;;;;;28.60;13.80;;;22.90;77.70;;;;;;5028735;28;20203;-80
2023/08/17 07:29:34;;;;;;;22.23;13.93;;;23.00;77.70;;;;;;5025981;28;20192;-79
2023/08/17 07:32:01;;;;;;;21.07;12.60;;;23.00;77.60;;;;;;5020416;28;20207;-80
2023/08/17 07:34:31;;;;;;;24.50;13.03;;;23.10;77.60;;;;;;5031428;28;20196;-79
2023/08/17 07:36:57;;;;;;;17.67;12.20;;;23.20;77.40;;;;;;5032369;28;20537;-80
2023/08/17 07:39:22;;;;;;;23.00;11.90;;;23.30;76.70;;;;;;5034001;28;20471;-79
2023/08/17 07:41:49;;;;;;;19.77;12.93;;;23.40;75.90;;;;;;5024576;28;20477;-80
2023/08/17 07:44:15;;;;;;;20.20;12.60;;;23.40;75.90;;;;;;5031691;28;20194;-80
2023/08/17 07:46:41;;;;;;;20.50;12.67;;;23.30;75.90;;;;;;5026407;28;20434;-80
2023/08/17 07:49:06;;;;;;;23.50;12.37;;;23.50;76.20;;;;;;5031608;28;20196;-81
2023/08/17 07:51:33;;;;;;;18.33;11.97;;;23.60;75.80;;;;;;5018402;28;20473;-79
2023/08/17 07:54:00;;;;;;;17.73;11.20;;;23.70;75.20;;;;;;5024380;28;20238;-79
2023/08/17 07:56:26;;;;;;;18.17;11.47;;;23.70;74.90;;;;;;5027117;28;20976;-80
2023/08/17 07:58:53;;;;;;;18.57;11.80;;;23.70;75.10;;;;;;5028094;28;20468;-79
2023/08/17 08:01:19;;;;;;;14.70;9.83;;;23.70;74.80;;;;;;5022905;28;20283;-80
2023/08/17 08:03:44;;;;;;;19.37;11.90;;;23.70;75.20;;;;;;5025659;28;20954;-79
2023/08/17 08:06:10;;;;;;;18.30;11.20;;;23.90;75.10;;;;;;5031379;28;20217;-79
2023/08/17 08:08:35;;;;;;;23.77;14.43;;;23.90;74.60;;;;;;5029141;28;20179;-79
2023/08/17 08:11:01;;;;;;;18.07;12.33;;;23.70;74.80;;;;;;5021104;28;20219;-78
2023/08/17 08:13:27;;;;;;;21.43;12.17;;;23.40;75.50;;;;;;5031139;28;20192;-79
2023/08/17 08:15:52;;;;;;;22.50;13.03;;;23.50;75.80;;;;;;5034233;28;20191;-78
2023/08/17 08:18:18;;;;;;;21.33;12.23;;;23.40;75.80;;;;;;5027907;28;20274;-79
2023/08/17 08:20:44;;;;;;;19.63;12.00;;;23.20;76.40;;;;;;5026976;28;20219;-80
2023/08/17 08:23:10;;;;;;;21.60;12.47;;;23.30;76.70;;;;;;5019368;28;20189;-80
2023/08/17 08:25:35;;;;;;;23.17;13.87;;;23.30;76.50;;;;;;5036787;28;20438;-81
2023/08/17 08:28:01;;;;;;;19.03;11.80;;;23.40;75.90;;;;;;5037084;28;20187;-81
2023/08/17 08:30:26;;;;;;;21.47;12.70;;;23.60;75.80;;;;;;5019581;28;20224;-79
2023/08/17 08:32:52;;;;;;;20.73;13.50;;;23.70;75.50;;;;;;5022884;28;20214;-79
2023/08/17 08:35:18;;;;;;;23.33;14.20;;;23.90;74.80;;;;;;5025950;28;20189;-80
2023/08/17 08:37:43;;;;;;;27.47;13.13;;;23.90;74.60;;;;;;5034501;28;20489;-79
2023/08/17 08:40:13;;;;;;;22.23;13.90;;;24.10;74.20;;;;;;5026131;28;20260;-79
2023/08/17 08:42:38;;;;;;;21.87;13.00;;;24.10;73.70;;;;;;5023459;28;20189;-81
2023/08/17 08:45:04;;;;;;;23.23;14.33;;;24.10;73.20;;;;;;5020103;28;20438;-80
2023/08/17 08:47:34;;;;;;;22.60;12.90;;;24.00;73.60;;;;;;5028288;28;20266;-77
2023/08/17 08:50:01;;;;;;;20.63;12.40;;;23.90;74.80;;;;;;5023466;28;20511;-79
2023/08/17 08:52:36;;;;;;;20.53;13.20;;;23.90;74.90;;;;;;5026995;28;20449;-80
2023/08/17 08:55:36;;;;;;;19.27;12.07;;;24.10;74.60;;;;;;5025665;28;20426;-78
2023/08/17 08:58:03;;;;;;;21.60;14.10;;;24.20;74.00;;;;;;4992885;28;21056;-77
2023/08/17 09:00:30;;;;;;;24.10;13.30;;;24.40;73.60;;;;;;4988013;28;20465;-80
2023/08/17 09:03:17;;;;;;;24.53;15.33;;;24.50;73.30;;;;;;4973916;28;20433;-79
2023/08/17 09:05:46;;;;;;;23.23;12.63;;;24.50;72.70;;;;;;4989986;28;20411;-80
2023/08/17 09:08:14;;;;;;;20.27;13.43;;;24.40;73.00;;;;;;4991826;28;20429;-79
2023/08/17 09:10:41;;;;;;;21.53;13.07;;;24.30;73.20;;;;;;4987090;28;20544;-80
2023/08/17 09:13:08;;;;;;;19.70;12.77;;;24.30;73.20;;;;;;4990719;28;20428;-80
2023/08/17 09:15:34;;;;;;;18.23;13.27;;;24.30;73.30;;;;;;4989751;28;20450;-80
2023/08/17 09:18:04;;;;;;;22.37;12.37;;;24.40;73.20;;;;;;4987284;28;20531;-80
2023/08/17 09:20:58;;;;;;;17.93;11.70;;;24.50;73.20;;;;;;4983373;28;20206;-80
2023/08/17 09:23:24;;;;;;;17.47;11.63;;;24.80;72.40;;;;;;4964460;28;20551;-80
2023/08/17 09:25:51;;;;;;;17.30;11.50;;;25.00;72.30;;;;;;4978541;28;20431;-78
2023/08/17 09:28:18;;;;;;;21.63;10.97;;;25.10;71.70;;;;;;4973212;28;20213;-78
2023/08/17 09:30:55;;;;;;;16.87;11.83;;;25.30;71.10;;;;;;4971221;28;20455;-79
2023/08/17 09:33:23;;;;;;;20.97;11.93;;;25.40;70.70;;;;;;4976749;28;21166;-80
2023/08/17 09:35:50;;;;;;;20.10;11.77;;;25.40;70.40;;;;;;4998184;28;20600;-77
2023/08/17 09:38:36;;;;;;;26.73;15.07;;;25.60;70.10;;;;;;5002759;28;20480;-80
2023/08/17 09:41:06;;;;;;;22.93;13.10;;;25.40;70.40;;;;;;4998031;28;20482;-81
2023/08/17 09:43:33;;;;;;;19.50;12.07;;;25.50;70.10;;;;;;4998905;28;20429;-79
2023/08/17 09:46:01;;;;;;;20.83;11.90;;;25.50;70.50;;;;;;4995939;28;20454;-82
2023/08/17 09:48:27;;;;;;;21.53;13.30;;;25.80;70.10;;;;;;5002644;28;20443;-81
2023/08/17 09:50:58;;;;;;;19.53;12.87;;;25.90;69.50;;;;;;4991647;28;20602;-80
2023/08/17 09:53:25;;;;;;;17.23;12.17;;;25.80;69.70;;;;;;4996335;28;20454;-80
2023/08/17 09:55:53;;;;;;;24.50;15.10;;;26.00;69.50;;;;;;4993322;28;20866;-78
2023/08/17 09:58:18;;;;;;;22.80;14.67;;;25.90;69.10;;;;;;4991354;28;20483;-79
2023/08/17 10:00:46;;;;;;;25.43;15.30;;;25.70;69.80;;;;;;5017123;28;20475;-80
2023/08/17 10:03:14;;;;;;;19.40;12.77;;;25.60;70.40;;;;;;5018858;28;20281;-80
2023/08/17 10:05:42;;;;;;;24.17;13.60;;;25.80;70.20;;;;;;5025769;28;20420;-78
2023/08/17 10:08:10;;;;;;;18.37;12.10;;;26.10;69.70;;;;;;5024726;28;20443;-79
2023/08/17 10:10:42;;;;;;;17.77;11.90;;;26.30;69.10;;;;;;5027325;28;20455;-80
2023/08/17 10:13:15;;;;;;;25.73;13.63;;;26.50;68.60;;;;;;5022477;28;20429;-80
2023/08/17 10:16:08;;;;;;;23.70;14.77;;;26.40;68.30;;;;;;5021908;28;20518;-79
2023/08/17 10:19:06;;;;;;;21.57;12.57;;;26.40;67.90;;;;;;5023210;28;20893;-78
2023/08/17 10:21:39;;;;;;;21.20;12.37;;;26.40;68.80;;;;;;5019763;28;20499;-79
2023/08/17 10:24:07;;;;;;;21.10;11.87;;;26.60;68.20;;;;;;5021181;28;20439;-80
2023/08/17 10:26:33;;;;;;;24.77;14.03;;;26.70;67.70;;;;;;5027290;28;20443;-81
2023/08/17 10:29:01;;;;;;;19.60;13.20;;;26.80;67.20;;;;;;5024599;28;20482;-79
2023/08/17 10:31:28;;;;;;;14.73;10.33;;;26.70;67.30;;;;;;5017917;28;20478;-78
2023/08/17 10:33:54;;;;;;;19.63;13.97;;;26.80;67.70;;;;;;5023599;28;20531;-79
2023/08/17 10:36:20;;;;;;;17.90;11.60;;;27.30;66.40;;;;;;5037474;28;20801;-79
2023/08/17 10:38:46;;;;;;;34.30;13.53;;;27.50;65.60;;;;;;5021237;28;20626;-80
2023/08/17 10:41:14;;;;;;;18.67;12.13;;;27.20;66.10;;;;;;5022599;28;20477;-78
2023/08/17 10:43:59;;;;;;;18.17;11.30;;;27.20;66.60;;;;;;5024971;28;20442;-79
2023/08/17 10:46:35;;;;;;;19.53;12.87;;;28.00;64.80;;;;;;5035698;28;20416;-79
2023/08/17 10:49:07;;;;;;;22.67;14.03;;;27.90;64.80;;;;;;5035721;28;20432;-77
2023/08/17 10:51:34;;;;;;;20.37;14.23;;;27.70;64.80;;;;;;5022249;28;20841;-79
2023/08/17 10:54:02;;;;;;;21.67;13.13;;;28.00;64.20;;;;;;5020999;28;20433;-79
2023/08/17 10:56:29;;;;;;;21.60;13.63;;;28.10;64.10;;;;;;5018816;28;20470;-79
2023/08/17 10:59:07;;;;;;;16.40;11.27;;;28.20;63.80;;;;;;5015629;28;20440;-79
2023/08/17 11:01:38;;;;;;;21.13;13.60;;;28.00;64.40;;;;;;5013017;28;20472;-79
2023/08/17 11:04:11;;;;;;;24.57;13.37;;;28.10;63.90;;;;;;5025326;28;20444;-79
2023/08/17 11:06:37;;;;;;;21.70;13.30;;;27.60;65.00;;;;;;5018530;28;20424;-79
2023/08/17 11:09:07;;;;;;;20.00;12.53;;;27.70;64.70;;;;;;5013614;28;20468;-79
2023/08/17 11:11:34;;;;;;;17.37;11.10;;;27.70;65.10;;;;;;5014755;28;20469;-79
2023/08/17 11:14:00;;;;;;;18.07;13.40;;;28.20;64.50;;;;;;5022929;28;20509;-80
2023/08/17 11:16:25;;;;;;;19.37;12.83;;;28.20;63.50;;;;;;5025321;28;20492;-80
2023/08/17 11:18:52;;;;;;;20.03;13.70;;;28.10;63.90;;;;;;5034894;28;20669;-80
2023/08/17 11:21:18;;;;;;;15.03;10.60;;;28.20;63.50;;;;;;5013977;28;20224;-80
2023/08/17 11:23:43;;;;;;;18.00;12.70;;;28.60;63.20;;;;;;5029882;28;20522;-80
2023/08/17 11:26:09;;;;;;;17.67;11.30;;;29.10;61.60;;;;;;5024813;28;20833;-80
2023/08/17 11:28:40;;;;;;;14.73;10.30;;;29.10;61.90;;;;;;5031573;28;20595;-81
2023/08/17 11:31:08;;;;;;;26.73;12.83;;;29.30;61.70;;;;;;5017469;28;20210;-79
2023/08/17 11:33:35;;;;;;;16.87;11.63;;;29.50;60.90;;;;;;5016979;28;20447;-80
2023/08/17 11:36:03;;;;;;;16.87;11.40;;;29.80;60.90;;;;;;5025588;28;20551;-80
2023/08/17 11:38:40;;;;;;;18.10;12.03;;;29.80;60.30;;;;;;5035548;28;20451;-81
2023/08/17 11:41:09;;;;;;;14.53;12.07;;;29.70;60.30;;;;;;5021059;28;20484;-80
2023/08/17 11:43:35;;;;;;;16.93;12.97;;;29.10;61.30;;;;;;5020505;28;20846;-81
2023/08/17 11:46:01;;;;;;;17.33;11.90;;;29.00;61.20;;;;;;5024525;28;20425;-81
2023/08/17 11:48:27;;;;;;;15.63;11.83;;;29.10;61.60;;;;;;5021520;28;20957;-79
2023/08/17 11:50:54;;;;;;;16.60;11.47;;;29.10;61.50;;;;;;5028062;28;20463;-80
2023/08/17 11:53:20;;;;;;;18.27;12.10;;;29.70;60.00;;;;;;5016907;28;20443;-81
2023/08/17 11:55:46;;;;;;;14.77;11.43;;;30.00;59.60;;;;;;5027776;28;20432;-80
2023/08/17 11:58:11;;;;;;;17.00;11.50;;;30.00;59.30;;;;;;5017013;28;20234;-80
2023/08/17 12:00:44;;;;;;;16.63;11.70;;;29.80;59.60;;;;;;5017562;28;20397;-80
2023/08/17 12:03:13;;;;;;;18.67;11.17;;;29.50;59.90;;;;;;5025343;28;20185;-80
2023/08/17 12:05:39;;;;;;;15.90;11.30;;;29.40;60.30;;;;;;5028316;28;20491;-80
2023/08/17 12:08:07;;;;;;;14.80;11.40;;;29.40;59.90;;;;;;5027615;28;20456;-80
2023/08/17 12:10:33;;;;;;;13.90;9.23;;;29.10;60.10;;;;;;5023220;28;20210;-80
2023/08/17 12:13:00;;;;;;;16.60;11.23;;;29.00;60.90;;;;;;5025509;28;20435;-81
2023/08/17 12:15:30;;;;;;;15.03;10.57;;;28.80;60.70;;;;;;5029686;28;20443;-80
2023/08/17 12:18:00;;;;;;;13.20;10.63;;;29.10;60.90;;;;;;5025914;28;20515;-80
2023/08/17 12:20:25;;;;;;;15.00;10.80;;;28.80;60.60;;;;;;5028707;28;20472;-79
2023/08/17 12:22:51;;;;;;;13.03;9.70;;;28.90;61.00;;;;;;5022685;28;20522;-81
2023/08/17 12:25:22;;;;;;;16.83;11.30;;;28.80;61.00;;;;;;5026068;28;20178;-81
2023/08/17 12:27:48;;;;;;;20.10;12.30;;;28.80;60.70;;;;;;5035767;28;20197;-80